createdAt,value
2019-03-09T00:01:47.655Z,18.17
2019-03-09T00:04:14.578Z,10.40
2019-03-09T00:06:40.974Z,9.73
2019-03-09T00:09:08.420Z,8.88
2019-03-09T00:11:34.931Z,9.95
2019-03-09T00:14:01.326Z,13.80
2019-03-09T00:16:27.958Z,7.62
2019-03-09T00:18:54.246Z,6.28
2019-03-09T00:21:20.547Z,5.40
2019-03-09T00:23:49.534Z,6.47
2019-03-09T00:26:34.418Z,6.25
2019-03-09T00:29:00.895Z,5.15
2019-03-09T00:31:45.787Z,6.70
2019-03-09T00:34:12.080Z,12.47
2019-03-09T00:36:38.605Z,7.12
2019-03-09T00:39:05.511Z,15.00
2019-03-09T00:41:31.886Z,26.68
2019-03-09T00:43:58.299Z,10.10
2019-03-09T00:46:24.588Z,8.65
2019-03-09T00:48:51.282Z,5.87
2019-03-09T00:51:17.668Z,5.05
2019-03-09T00:53:43.974Z,5.58
2019-03-09T00:56:10.765Z,6.47
2019-03-09T00:58:37.247Z,6.90
2019-03-09T01:01:03.944Z,5.25
2019-03-09T01:03:30.492Z,13.10
2019-03-09T01:05:57.011Z,13.62
2019-03-09T01:08:23.856Z,12.28
2019-03-09T01:10:50.362Z,11.57
2019-03-09T01:13:16.842Z,19.05
2019-03-09T01:15:43.580Z,22.67
2019-03-09T01:18:10.285Z,29.75
2019-03-09T01:20:37.062Z,29.18
2019-03-09T01:23:03.699Z,30.30
2019-03-09T01:25:30.102Z,27.90
2019-03-09T01:27:56.769Z,22.35
2019-03-09T01:30:23.609Z,23.85
2019-03-09T01:32:50.192Z,12.28
2019-03-09T01:35:16.643Z,9.38
2019-03-09T01:37:43.262Z,21.00
2019-03-09T01:40:14.667Z,20.45
2019-03-09T01:42:41.073Z,18.25
2019-03-09T01:45:12.208Z,19.55
2019-03-09T01:47:38.705Z,16.82
2019-03-09T01:50:07.739Z,20.00
2019-03-09T01:52:34.156Z,20.90
2019-03-09T01:55:00.650Z,20.32
2019-03-09T01:57:27.381Z,16.25
2019-03-09T01:59:53.987Z,13.68
2019-03-09T02:02:20.528Z,16.52
2019-03-09T02:04:46.915Z,16.12
2019-03-09T02:07:13.319Z,12.63
2019-03-09T02:09:39.704Z,11.48
2019-03-09T02:12:06.144Z,12.07
2019-03-09T02:14:32.650Z,9.78
2019-03-09T02:16:59.255Z,8.75
2019-03-09T02:19:25.580Z,10.72
2019-03-09T02:21:51.991Z,7.08
2019-03-09T02:24:18.844Z,8.23
2019-03-09T02:26:45.144Z,7.87
2019-03-09T02:29:11.641Z,8.30
2019-03-09T02:31:37.936Z,8.15
2019-03-09T02:34:04.557Z,7.25
2019-03-09T02:36:30.871Z,7.17
2019-03-09T02:38:59.104Z,6.78
2019-03-09T02:41:25.276Z,5.72
2019-03-09T02:43:51.504Z,5.00
2019-03-09T02:46:17.882Z,6.65
2019-03-09T02:48:44.330Z,6.72
2019-03-09T02:51:10.731Z,5.17
2019-03-09T02:53:37.694Z,6.08
2019-03-09T02:56:04.183Z,6.22
2019-03-09T02:58:30.623Z,4.22
2019-03-09T03:01:04.973Z,6.25
2019-03-09T03:03:31.396Z,6.95
2019-03-09T03:05:57.775Z,5.22
2019-03-09T03:08:24.126Z,6.40
2019-03-09T03:10:50.414Z,4.83
2019-03-09T03:13:16.912Z,6.45
2019-03-09T03:15:43.301Z,7.08
2019-03-09T03:18:09.745Z,5.20
2019-03-09T03:20:36.028Z,6.72
2019-03-09T03:23:02.538Z,6.03
2019-03-09T03:25:28.855Z,7.72
2019-03-09T03:27:55.618Z,13.10
2019-03-09T03:30:22.480Z,27.07
2019-03-09T03:32:48.990Z,5.83
2019-03-09T03:35:15.412Z,5.50
2019-03-09T03:37:41.907Z,4.90
2019-03-09T03:40:09.243Z,6.67
2019-03-09T03:42:35.732Z,4.15
2019-03-09T03:45:06.292Z,6.33
2019-03-09T03:47:33.036Z,4.67
2019-03-09T03:49:59.471Z,4.97
2019-03-09T03:52:25.775Z,7.62
2019-03-09T03:54:52.162Z,4.55
2019-03-09T03:57:18.756Z,3.92
2019-03-09T03:59:45.598Z,3.50
2019-03-09T04:02:12.015Z,3.52
2019-03-09T04:04:38.894Z,3.70
2019-03-09T04:07:05.481Z,4.10
2019-03-09T04:09:32.170Z,3.98
2019-03-09T04:11:58.808Z,5.22
2019-03-09T04:14:25.215Z,5.10
2019-03-09T04:16:51.675Z,4.58
2019-03-09T04:19:18.102Z,3.90
2019-03-09T04:21:44.902Z,4.40
2019-03-09T04:24:11.259Z,3.20
2019-03-09T04:26:37.588Z,4.50
2019-03-09T04:29:04.119Z,4.22
2019-03-09T04:31:30.732Z,4.92
2019-03-09T04:33:59.126Z,5.90
2019-03-09T04:36:25.466Z,4.40
2019-03-09T04:38:52.121Z,6.42
2019-03-09T04:41:18.524Z,4.37
2019-03-09T04:43:44.833Z,4.58
2019-03-09T04:46:11.218Z,5.08
2019-03-09T04:48:37.566Z,5.70
2019-03-09T04:51:03.954Z,4.87
2019-03-09T04:53:30.298Z,9.28
2019-03-09T04:55:56.848Z,4.95
2019-03-09T04:58:23.139Z,4.47
2019-03-09T05:00:49.613Z,4.90
2019-03-09T05:03:16.003Z,5.75
2019-03-09T05:05:42.626Z,4.75
2019-03-09T05:08:17.658Z,4.55
2019-03-09T05:10:49.491Z,4.83
2019-03-09T05:13:27.656Z,4.80
2019-03-09T05:15:54.320Z,4.42
2019-03-09T05:18:20.631Z,4.47
2019-03-09T05:20:46.851Z,7.17
2019-03-09T05:23:13.224Z,5.08
2019-03-09T05:25:39.416Z,4.62
2019-03-09T05:28:05.739Z,6.90
2019-03-09T05:30:43.447Z,4.47
2019-03-09T05:33:10.204Z,7.25
2019-03-09T05:35:36.843Z,4.17
2019-03-09T05:38:03.687Z,6.67
2019-03-09T05:40:30.183Z,5.62
2019-03-09T05:42:56.709Z,7.72
2019-03-09T05:45:23.292Z,8.18
2019-03-09T05:47:49.599Z,8.20
2019-03-09T05:50:16.260Z,6.78
2019-03-09T05:52:47.160Z,5.95
2019-03-09T05:55:13.456Z,7.62
2019-03-09T05:57:39.755Z,4.95
2019-03-09T06:00:11.456Z,5.95
2019-03-09T06:02:38.034Z,4.05
2019-03-09T06:05:28.852Z,6.33
2019-03-09T06:07:55.386Z,6.22
2019-03-09T06:10:21.804Z,5.00
2019-03-09T06:12:48.299Z,4.17
2019-03-09T06:15:16.435Z,4.35
2019-03-09T06:17:44.144Z,4.28
2019-03-09T06:20:10.674Z,4.83
2019-03-09T06:22:37.061Z,5.22
2019-03-09T06:25:05.554Z,5.67
2019-03-09T06:27:31.851Z,8.00
2019-03-09T06:29:58.527Z,4.58
2019-03-09T06:32:37.227Z,4.28
2019-03-09T06:35:17.791Z,5.33
2019-03-09T06:38:10.772Z,8.08
2019-03-09T06:40:37.090Z,5.70
2019-03-09T06:43:03.644Z,4.55
2019-03-09T06:45:30.148Z,3.05
2019-03-09T06:47:56.784Z,4.62
2019-03-09T06:50:23.099Z,5.28
2019-03-09T06:52:49.427Z,4.10
2019-03-09T06:55:16.041Z,4.45
2019-03-09T06:57:42.334Z,3.33
2019-03-09T07:00:31.172Z,3.90
2019-03-09T07:02:58.098Z,5.37
2019-03-09T07:05:24.534Z,4.37
2019-03-09T07:07:50.824Z,4.85
2019-03-09T07:10:17.416Z,2.85
2019-03-09T07:12:44.039Z,3.75
2019-03-09T07:15:27.918Z,3.25
2019-03-09T07:17:57.957Z,2.83
2019-03-09T07:20:24.348Z,2.95
2019-03-09T07:22:50.656Z,3.35
2019-03-09T07:25:17.207Z,4.35
2019-03-09T07:28:02.884Z,3.37
2019-03-09T07:30:29.408Z,3.87
2019-03-09T07:32:55.931Z,4.50
2019-03-09T07:35:22.708Z,4.47
2019-03-09T07:37:49.099Z,7.22
2019-03-09T07:40:17.202Z,2.58
2019-03-09T07:42:43.851Z,3.25
2019-03-09T07:45:12.324Z,3.05
2019-03-09T07:47:38.951Z,4.05
2019-03-09T07:50:09.935Z,2.77
2019-03-09T07:52:36.736Z,5.20
2019-03-09T07:55:18.450Z,2.87
2019-03-09T07:57:45.355Z,5.08
2019-03-09T08:00:18.268Z,4.40
2019-03-09T08:02:45.091Z,2.98
2019-03-09T08:05:12.979Z,5.65
2019-03-09T08:07:39.575Z,3.27
2019-03-09T08:10:14.485Z,5.70
2019-03-09T08:12:40.976Z,3.72
2019-03-09T08:15:14.430Z,6.65
2019-03-09T08:17:40.915Z,5.75
2019-03-09T08:20:10.514Z,4.12
2019-03-09T08:22:36.746Z,4.50
2019-03-09T08:25:07.468Z,4.83
2019-03-09T08:27:34.087Z,4.67
2019-03-09T08:30:02.218Z,4.70
2019-03-09T08:32:28.928Z,6.78
2019-03-09T08:34:55.273Z,6.17
2019-03-09T08:37:21.671Z,7.28
2019-03-09T08:39:48.101Z,7.03
2019-03-09T08:42:14.479Z,5.08
2019-03-09T08:44:40.849Z,5.75
2019-03-09T08:47:07.402Z,6.83
2019-03-09T08:49:33.695Z,6.22
2019-03-09T08:52:00.191Z,4.60
2019-03-09T08:54:26.487Z,5.72
2019-03-09T08:56:52.820Z,6.22
2019-03-09T08:59:19.136Z,5.50
2019-03-09T09:01:45.545Z,8.03
2019-03-09T09:04:12.021Z,7.95
2019-03-09T09:06:38.329Z,7.47
2019-03-09T09:09:05.523Z,5.92
2019-03-09T09:11:31.820Z,4.78
2019-03-09T09:13:58.286Z,6.03
2019-03-09T09:16:24.499Z,5.60
2019-03-09T09:18:50.945Z,5.80
2019-03-09T09:21:17.287Z,4.90
2019-03-09T09:23:43.613Z,5.62
2019-03-09T09:26:10.150Z,9.78
2019-03-09T09:28:36.781Z,4.70
2019-03-09T09:31:03.178Z,6.95
2019-03-09T09:33:29.490Z,5.45
2019-03-09T09:35:56.052Z,4.25
2019-03-09T09:38:22.513Z,5.90
2019-03-09T09:40:48.959Z,8.13
2019-03-09T09:43:15.470Z,7.80
2019-03-09T09:45:42.430Z,4.47
2019-03-09T09:48:09.184Z,5.50
2019-03-09T09:50:35.498Z,5.42
2019-03-09T09:53:02.031Z,4.10
2019-03-09T09:55:31.161Z,6.22
2019-03-09T09:57:58.971Z,4.80
2019-03-09T10:00:26.975Z,4.35
2019-03-09T10:02:53.806Z,5.53
2019-03-09T10:05:21.304Z,8.30
2019-03-09T10:07:47.766Z,7.58
2019-03-09T10:10:19.530Z,7.75
2019-03-09T10:12:46.077Z,5.12
2019-03-09T10:15:28.673Z,2.27
2019-03-09T10:17:55.340Z,2.40
2019-03-09T10:20:22.488Z,3.45
2019-03-09T10:22:49.127Z,5.75
2019-03-09T10:25:15.414Z,3.67
2019-03-09T10:27:41.919Z,5.55
2019-03-09T10:30:21.445Z,4.00
2019-03-09T10:32:47.967Z,4.50
2019-03-09T10:35:14.708Z,5.35
2019-03-09T10:37:41.229Z,4.72
2019-03-09T10:40:10.960Z,4.95
2019-03-09T10:42:37.258Z,4.97
2019-03-09T10:45:08.298Z,4.03
2019-03-09T10:47:34.688Z,5.95
2019-03-09T10:50:01.096Z,5.40
2019-03-09T10:52:27.837Z,3.25
2019-03-09T10:54:54.565Z,3.90
2019-03-09T10:57:21.306Z,4.75
2019-03-09T10:59:47.701Z,2.27
2019-03-09T11:02:14.128Z,3.17
2019-03-09T11:04:40.422Z,3.50
2019-03-09T11:07:06.974Z,3.08
2019-03-09T11:09:33.718Z,3.22
2019-03-09T11:12:00.147Z,6.35
2019-03-09T11:14:26.667Z,4.92
2019-03-09T11:16:53.088Z,1.57
2019-03-09T11:19:19.678Z,2.27
2019-03-09T11:21:46.201Z,3.80
2019-03-09T11:24:12.638Z,2.27
2019-03-09T11:26:39.227Z,3.90
2019-03-09T11:29:05.855Z,7.60
2019-03-09T11:31:32.259Z,7.30
2019-03-09T11:33:58.663Z,5.65
2019-03-09T11:36:25.008Z,4.30
2019-03-09T11:38:51.523Z,3.42
2019-03-09T11:41:19.345Z,3.37
2019-03-09T11:43:46.114Z,4.67
2019-03-09T11:46:13.036Z,3.08
2019-03-09T11:48:39.328Z,2.95
2019-03-09T11:51:06.382Z,3.52
2019-03-09T11:53:32.779Z,5.00
2019-03-09T11:58:45.323Z,3.27
2019-03-09T12:01:11.861Z,4.95
2019-03-09T12:03:38.247Z,5.55
2019-03-09T12:06:04.669Z,3.90
2019-03-09T12:08:31.250Z,3.62
2019-03-09T12:10:57.845Z,5.42
2019-03-09T12:13:24.143Z,3.67
2019-03-09T12:15:50.563Z,5.25
2019-03-09T12:18:16.867Z,3.52
2019-03-09T12:20:43.377Z,4.12
2019-03-09T12:23:17.393Z,2.83
2019-03-09T12:25:43.707Z,3.05
2019-03-09T12:28:10.242Z,5.50
2019-03-09T12:30:36.852Z,2.67
2019-03-09T12:33:03.375Z,4.40
2019-03-09T12:35:29.860Z,3.80
2019-03-09T12:37:56.251Z,3.35
2019-03-09T12:40:22.808Z,2.77
2019-03-09T12:42:49.109Z,4.20
2019-03-09T12:45:16.310Z,3.90
2019-03-09T12:47:43.020Z,2.90
2019-03-09T12:50:23.123Z,3.22
2019-03-09T12:52:49.619Z,2.58
2019-03-09T12:55:16.032Z,2.42
2019-03-09T12:57:42.595Z,1.82
2019-03-09T13:03:05.294Z,4.47
2019-03-09T13:05:31.687Z,3.08
2019-03-09T13:07:58.223Z,2.33
2019-03-09T13:10:24.737Z,2.15
2019-03-09T13:12:51.778Z,2.22
2019-03-09T13:15:18.762Z,1.20
2019-03-09T13:17:45.705Z,1.55
2019-03-09T13:20:14.800Z,2.37
2019-03-09T13:22:43.157Z,1.52
2019-03-09T13:25:16.927Z,3.90
2019-03-09T13:27:43.247Z,5.05
2019-03-09T13:30:18.246Z,2.10
2019-03-09T13:32:44.761Z,6.30
2019-03-09T13:35:12.099Z,3.62
2019-03-09T13:37:38.433Z,1.15
2019-03-09T13:40:08.070Z,2.95
2019-03-09T13:42:34.659Z,1.92
2019-03-09T13:45:01.116Z,2.30
2019-03-09T13:47:27.430Z,2.30
2019-03-09T13:49:53.656Z,1.80
2019-03-09T13:52:20.560Z,1.95
2019-03-09T13:54:46.894Z,1.52
2019-03-09T13:57:13.262Z,2.92
2019-03-09T13:59:39.575Z,3.08
2019-03-09T14:02:06.131Z,1.80
2019-03-09T14:04:32.347Z,1.35
2019-03-09T14:06:58.663Z,1.87
2019-03-09T14:09:25.222Z,1.92
2019-03-09T14:11:51.657Z,2.40
2019-03-09T14:14:17.970Z,1.32
2019-03-09T14:16:44.323Z,2.20
2019-03-09T14:19:10.801Z,1.72
2019-03-09T14:21:37.239Z,3.60
2019-03-09T14:24:03.661Z,2.52
2019-03-09T14:26:29.970Z,2.15
2019-03-09T14:28:56.739Z,3.12
2019-03-09T14:31:23.235Z,1.57
2019-03-09T14:33:49.687Z,2.50
2019-03-09T14:36:16.247Z,6.97
2019-03-09T14:38:42.876Z,7.95
2019-03-09T14:41:09.608Z,4.12
2019-03-09T14:43:36.016Z,6.15
2019-03-09T14:46:02.585Z,8.00
2019-03-09T14:48:29.227Z,8.98
2019-03-09T14:50:55.615Z,5.60
2019-03-09T14:53:21.942Z,5.67
2019-03-09T14:55:48.356Z,6.17
2019-03-09T14:58:14.987Z,3.90
2019-03-09T15:00:41.316Z,4.05
2019-03-09T15:03:07.776Z,4.00
2019-03-09T15:05:34.406Z,17.25
2019-03-09T15:08:00.867Z,18.55
2019-03-09T15:10:27.410Z,13.30
2019-03-09T15:12:53.861Z,22.30
2019-03-09T15:15:20.588Z,18.70
2019-03-09T15:17:47.114Z,4.25
2019-03-09T15:20:15.202Z,3.00
2019-03-09T15:22:42.049Z,4.33
2019-03-09T15:25:19.629Z,3.25
2019-03-09T15:27:46.130Z,3.90
2019-03-09T15:30:19.510Z,4.42
2019-03-09T15:32:46.006Z,3.92
2019-03-09T15:35:15.000Z,6.15
2019-03-09T15:37:41.338Z,7.45
2019-03-09T15:40:12.340Z,7.60
2019-03-09T15:42:39.415Z,7.75
2019-03-09T15:45:15.289Z,9.05
2019-03-09T15:47:41.746Z,10.00
2019-03-09T15:50:12.064Z,7.65
2019-03-09T15:52:38.423Z,5.67
2019-03-09T15:55:06.539Z,7.35
2019-03-09T15:57:33.179Z,6.83
2019-03-09T16:00:00.331Z,6.20
2019-03-09T16:02:26.853Z,8.95
2019-03-09T16:04:53.187Z,8.90
2019-03-09T16:07:19.573Z,12.75
2019-03-09T16:09:46.007Z,9.53
2019-03-09T16:12:12.429Z,11.75
2019-03-09T16:14:38.794Z,16.77
2019-03-09T16:17:05.863Z,16.85
2019-03-09T16:19:32.296Z,11.05
2019-03-09T16:21:58.663Z,12.25
2019-03-09T16:24:25.635Z,15.28
2019-03-09T16:26:52.036Z,12.05
2019-03-09T16:29:18.355Z,6.55
2019-03-09T16:31:44.695Z,9.35
2019-03-09T16:34:11.509Z,10.45
2019-03-09T16:36:37.841Z,8.53
2019-03-09T16:39:05.546Z,11.63
2019-03-09T16:41:33.223Z,7.92
2019-03-09T16:43:59.680Z,10.93
2019-03-09T16:46:26.066Z,9.38
2019-03-09T16:48:52.487Z,9.88
2019-03-09T16:51:18.919Z,12.93
2019-03-09T16:53:45.428Z,11.40
2019-03-09T16:56:12.904Z,13.80
2019-03-09T16:58:39.251Z,10.38
2019-03-09T17:01:05.689Z,13.40
2019-03-09T17:03:31.981Z,11.28
2019-03-09T17:05:58.403Z,8.43
2019-03-09T17:08:24.783Z,12.68
2019-03-09T17:10:51.393Z,12.35
2019-03-09T17:13:17.704Z,10.58
2019-03-09T17:15:44.149Z,7.62
2019-03-09T17:18:10.747Z,11.85
2019-03-09T17:20:37.173Z,13.83
2019-03-09T17:23:03.497Z,9.65
2019-03-09T17:25:29.723Z,10.23
2019-03-09T17:27:56.208Z,7.87
2019-03-09T17:30:22.618Z,8.85
2019-03-09T17:32:49.287Z,9.23
2019-03-09T17:35:15.808Z,9.43
2019-03-09T17:37:42.460Z,7.28
2019-03-09T17:40:15.136Z,9.95
2019-03-09T17:42:41.665Z,6.15
2019-03-09T17:45:22.127Z,6.67
2019-03-09T17:47:48.524Z,7.08
2019-03-09T17:50:15.058Z,8.43
2019-03-09T17:52:41.498Z,5.78
2019-03-09T17:55:09.901Z,7.62
2019-03-09T17:57:36.415Z,9.48
2019-03-09T18:00:25.612Z,6.78
2019-03-09T18:02:52.309Z,6.40
2019-03-09T18:05:19.694Z,9.15
2019-03-09T18:07:46.683Z,9.50
2019-03-09T18:10:42.928Z,7.15
2019-03-09T18:13:09.579Z,8.40
2019-03-09T18:15:36.094Z,7.15
2019-03-09T18:18:03.407Z,6.55
2019-03-09T18:20:29.930Z,7.17
2019-03-09T18:22:56.335Z,8.18
2019-03-09T18:25:22.690Z,8.35
2019-03-09T18:27:49.023Z,8.58
2019-03-09T18:30:15.639Z,5.60
2019-03-09T18:32:42.082Z,6.42
2019-03-09T18:35:10.236Z,6.87
2019-03-09T18:37:36.739Z,6.83
2019-03-09T18:40:08.736Z,7.47
2019-03-09T18:42:35.042Z,8.40
2019-03-09T18:45:01.647Z,5.67
2019-03-09T18:47:28.112Z,5.58
2019-03-09T18:49:54.415Z,7.58
2019-03-09T18:52:20.738Z,7.10
2019-03-09T18:54:47.168Z,7.85
2019-03-09T18:57:13.575Z,8.90
2019-03-09T18:59:40.754Z,8.18
2019-03-09T19:02:07.046Z,5.45
2019-03-09T19:04:33.367Z,10.43
2019-03-09T19:06:59.685Z,6.87
2019-03-09T19:09:26.049Z,9.25
2019-03-09T19:11:52.344Z,8.65
2019-03-09T19:14:19.215Z,53.28
2019-03-09T19:16:45.767Z,13.58
2019-03-09T19:19:12.323Z,5.05
2019-03-09T19:21:38.771Z,4.37
2019-03-09T19:24:05.375Z,4.40
2019-03-09T19:26:31.691Z,6.70
2019-03-09T19:28:57.983Z,6.90
2019-03-09T19:31:24.331Z,5.47
2019-03-09T19:33:50.616Z,4.97
2019-03-09T19:36:17.143Z,6.03
2019-03-09T19:38:43.436Z,3.92
2019-03-09T19:43:56.240Z,5.47
2019-03-09T19:46:22.669Z,3.90
2019-03-09T19:48:49.054Z,9.95
2019-03-09T19:51:15.467Z,4.12
2019-03-09T19:53:41.840Z,9.18
2019-03-09T19:56:08.907Z,4.50
2019-03-09T19:58:35.328Z,5.00
2019-03-09T20:01:01.642Z,2.87
2019-03-09T20:03:28.128Z,5.47
2019-03-09T20:05:55.081Z,3.40
2019-03-09T20:08:22.348Z,3.37
2019-03-09T20:10:48.688Z,5.80
2019-03-09T20:13:15.344Z,5.70
2019-03-09T20:15:41.741Z,3.65
2019-03-09T20:18:08.421Z,3.72
2019-03-09T20:20:34.911Z,2.60
2019-03-09T20:23:01.260Z,10.25
2019-03-09T20:25:28.560Z,21.42
2019-03-09T20:27:55.151Z,7.78
2019-03-09T20:30:22.328Z,3.72
2019-03-09T20:32:48.734Z,7.78
2019-03-09T20:35:16.424Z,6.72
2019-03-09T20:37:42.875Z,2.72
2019-03-09T20:40:15.027Z,2.80
2019-03-09T20:42:41.383Z,4.87
2019-03-09T20:45:11.530Z,6.58
2019-03-09T20:47:38.129Z,6.28
2019-03-09T20:50:12.072Z,5.22
2019-03-09T20:52:38.588Z,10.40
2019-03-09T20:55:06.755Z,2.85
2019-03-09T20:57:33.057Z,2.05
2019-03-09T20:59:59.654Z,3.20
2019-03-09T21:02:26.099Z,2.20
2019-03-09T21:04:53.068Z,3.15
2019-03-09T21:07:19.574Z,3.30
2019-03-09T21:09:47.959Z,3.33
2019-03-09T21:12:14.243Z,3.00
2019-03-09T21:14:40.550Z,4.30
2019-03-09T21:17:07.096Z,4.83
2019-03-09T21:19:33.568Z,5.08
2019-03-09T21:21:59.865Z,1.92
2019-03-09T21:24:26.788Z,4.65
2019-03-09T21:26:53.128Z,3.30
2019-03-09T21:29:19.650Z,5.12
2019-03-09T21:31:46.152Z,3.05
2019-03-09T21:34:12.581Z,7.80
2019-03-09T21:36:38.974Z,6.42
2019-03-09T21:39:06.060Z,4.00
2019-03-09T21:41:32.637Z,2.20
2019-03-09T21:43:58.967Z,3.33
2019-03-09T21:46:25.404Z,4.22
2019-03-09T21:48:51.938Z,4.67
2019-03-09T21:51:18.451Z,5.05
2019-03-09T21:53:44.777Z,3.58
2019-03-09T21:56:11.091Z,4.92
2019-03-09T21:58:37.971Z,3.75
2019-03-09T22:01:04.276Z,4.40
2019-03-09T22:03:30.575Z,4.75
2019-03-09T22:06:05.663Z,3.80
2019-03-09T22:08:25.208Z,4.35
2019-03-09T22:10:51.548Z,5.12
2019-03-09T22:13:18.651Z,9.15
2019-03-09T22:15:45.663Z,6.00
2019-03-09T22:18:12.080Z,8.18
2019-03-09T22:20:38.679Z,2.30
2019-03-09T22:23:05.101Z,3.12
2019-03-09T22:25:31.390Z,2.98
2019-03-09T22:27:57.899Z,1.60
2019-03-09T22:30:24.400Z,2.08
2019-03-09T22:32:51.107Z,4.50
2019-03-09T22:35:17.600Z,1.70
2019-03-09T22:37:44.008Z,2.77
2019-03-09T22:40:16.575Z,1.87
2019-03-09T22:42:42.980Z,2.65
2019-03-09T22:45:14.229Z,1.62
2019-03-09T22:47:40.884Z,5.95
2019-03-09T22:50:19.070Z,3.87
2019-03-09T22:52:45.576Z,2.72
2019-03-09T22:55:12.002Z,2.22
2019-03-09T22:57:38.348Z,2.90
2019-03-09T23:00:15.127Z,13.10
2019-03-09T23:02:41.664Z,11.25
2019-03-09T23:05:09.904Z,4.60
2019-03-09T23:07:36.400Z,4.15
2019-03-09T23:10:14.605Z,9.00
2019-03-09T23:12:40.928Z,2.80
2019-03-09T23:15:14.287Z,4.45
2019-03-09T23:17:40.586Z,6.95
2019-03-09T23:20:10.395Z,6.90
2019-03-09T23:22:36.714Z,8.75
2019-03-09T23:25:04.703Z,16.07
2019-03-09T23:27:31.304Z,9.03
2019-03-09T23:29:57.597Z,2.90
2019-03-09T23:32:23.965Z,7.72
2019-03-09T23:34:50.348Z,1.95
2019-03-09T23:37:16.828Z,2.17
2019-03-09T23:39:43.347Z,1.52
2019-03-09T23:42:09.647Z,1.55
2019-03-09T23:44:36.438Z,3.98
2019-03-09T23:47:03.036Z,9.38
2019-03-09T23:49:29.592Z,3.08
2019-03-09T23:51:56.022Z,2.30
2019-03-09T23:54:22.447Z,1.90
2019-03-09T23:56:48.981Z,2.47
2019-03-09T23:59:15.654Z,20.85
